Time;durP1;ratioP1;P1;durP2;ratioP2;P2;SDS_P1;SDS_P2;PMS_P1;PMS_P2;Temp;Humidity;BMP_temperature;BMP_pressure;BME280_temperature;BME280_humidity;BME280_pressure;Samples;Min_cycle;Max_cycle;Signal;HPM_P1;HPM_P2
2023/03/05 00:01:38;;;;;;;38.33;12.00;;;;;;;2.56;88.25;96512.69;5014857;28;20335;-73
2023/03/05 00:04:10;;;;;;;35.90;11.27;;;;;;;2.65;87.59;96511.97;5015816;28;20221;-73
2023/03/05 00:06:36;;;;;;;38.90;14.07;;;;;;;2.58;87.15;96508.19;5016987;28;20220;-75
2023/03/05 00:09:03;;;;;;;33.03;10.23;;;;;;;2.48;87.92;96505.50;5017648;28;20206;-70
2023/03/05 00:11:32;;;;;;;37.57;10.47;;;;;;;2.55;87.59;96509.25;5017165;28;20215;-72
2023/03/05 00:14:00;;;;;;;32.17;11.30;;;;;;;2.52;88.35;96513.84;5016596;28;20212;-72
2023/03/05 00:16:28;;;;;;;37.73;12.53;;;;;;;2.52;88.22;96514.69;5017726;28;20205;-73
2023/03/05 00:18:56;;;;;;;36.37;11.53;;;;;;;2.39;88.02;96514.97;5017781;28;20206;-72
2023/03/05 00:21:25;;;;;;;36.43;10.90;;;;;;;2.46;88.44;96515.19;5017459;28;20252;-74
2023/03/05 00:23:52;;;;;;;40.07;10.97;;;;;;;2.20;89.23;96513.00;5016561;28;20213;-75
2023/03/05 00:26:19;;;;;;;34.80;12.37;;;;;;;2.29;89.50;96501.88;5017461;28;20252;-73
2023/03/05 00:28:48;;;;;;;36.03;11.23;;;;;;;2.29;89.09;96501.03;5017076;28;20204;-77
2023/03/05 00:31:15;;;;;;;35.87;12.00;;;;;;;2.33;89.20;96503.28;5017237;28;20233;-77
2023/03/05 00:33:42;;;;;;;40.67;11.43;;;;;;;2.25;89.32;96502.22;5016029;28;20956;-71
2023/03/05 00:36:09;;;;;;;33.40;11.03;;;;;;;2.21;89.62;96498.22;5017336;28;20209;-72
2023/03/05 00:38:37;;;;;;;35.10;11.53;;;;;;;2.35;89.57;96496.16;5016847;28;20205;-72
2023/03/05 00:41:04;;;;;;;38.43;12.43;;;;;;;2.26;89.87;96490.88;5016902;28;20229;-73
2023/03/05 00:43:30;;;;;;;45.67;12.10;;;;;;;2.33;89.12;96489.44;5016969;28;20229;-74
2023/03/05 00:45:56;;;;;;;33.83;11.43;;;;;;;2.35;89.46;96495.34;5015961;28;20205;-72
2023/03/05 00:48:24;;;;;;;36.60;11.23;;;;;;;2.14;88.93;96495.28;5016922;28;20208;-74
2023/03/05 00:50:51;;;;;;;37.00;11.40;;;;;;;2.12;89.74;96491.97;5016549;28;20296;-73
2023/03/05 00:53:17;;;;;;;35.80;11.63;;;;;;;2.18;90.22;96495.88;5016467;28;20222;-72
2023/03/05 00:55:45;;;;;;;43.63;11.70;;;;;;;2.25;90.52;96489.22;5019758;28;20236;-69
2023/03/05 00:58:11;;;;;;;39.30;12.00;;;;;;;2.33;90.11;96486.84;5020830;28;20208;-71
2023/03/05 01:00:38;;;;;;;44.17;11.90;;;;;;;2.34;90.88;96488.50;5020225;28;20212;-72
2023/03/05 01:03:04;;;;;;;38.13;12.00;;;;;;;2.30;90.79;96492.28;5020701;28;20336;-70
2023/03/05 01:05:31;;;;;;;38.80;11.17;;;;;;;2.36;89.84;96481.41;5019996;28;20215;-71
2023/03/05 01:07:57;;;;;;;41.37;11.77;;;;;;;2.23;91.29;96485.91;5020717;28;20790;-74
2023/03/05 01:10:25;;;;;;;37.03;11.53;;;;;;;2.35;90.04;96479.75;5020794;28;20209;-71
2023/03/05 01:12:53;;;;;;;34.03;11.57;;;;;;;2.38;89.07;96479.50;5020333;28;20788;-72
2023/03/05 01:15:20;;;;;;;37.27;11.33;;;;;;;2.13;89.65;96477.19;5019771;28;20220;-77
2023/03/05 01:17:46;;;;;;;32.50;12.13;;;;;;;1.95;90.95;96470.84;5020422;28;20327;-71
2023/03/05 01:20:14;;;;;;;36.73;13.00;;;;;;;2.03;90.82;96468.47;5020242;28;20696;-75
2023/03/05 01:22:41;;;;;;;38.07;11.50;;;;;;;2.15;90.87;96465.75;5020117;28;20236;-76
2023/03/05 01:25:08;;;;;;;29.83;9.90;;;;;;;2.04;90.93;96459.72;5019693;28;20214;-71
2023/03/05 01:27:35;;;;;;;40.10;13.23;;;;;;;2.04;91.46;96455.34;5020001;28;20223;-75
2023/03/05 01:30:04;;;;;;;34.37;10.97;;;;;;;2.10;92.07;96460.06;5020442;28;20212;-73
2023/03/05 01:32:30;;;;;;;40.03;11.97;;;;;;;1.98;91.18;96455.00;5019785;28;20220;-75
2023/03/05 01:34:57;;;;;;;41.77;11.57;;;;;;;1.92;92.22;96458.06;5019940;28;20217;-71
2023/03/05 01:37:23;;;;;;;39.20;12.13;;;;;;;2.04;91.52;96449.34;5019978;28;20204;-72
2023/03/05 01:39:50;;;;;;;26.77;9.77;;;;;;;2.02;91.24;96448.63;5020302;28;20220;-70
2023/03/05 01:42:18;;;;;;;32.73;10.07;;;;;;;2.09;91.06;96449.81;5019786;28;20229;-71
2023/03/05 01:45:01;;;;;;;42.93;12.47;;;;;;;2.25;90.89;96439.84;5019438;28;20204;-73
2023/03/05 01:47:29;;;;;;;40.33;10.93;;;;;;;2.26;91.21;96442.31;5019369;28;20206;-69
2023/03/05 01:49:56;;;;;;;38.97;11.60;;;;;;;1.98;91.51;96440.22;5019826;28;20661;-73
2023/03/05 01:52:25;;;;;;;38.47;11.77;;;;;;;2.10;91.41;96443.63;5019952;28;20224;-71
2023/03/05 01:54:54;;;;;;;36.40;11.50;;;;;;;2.09;91.49;96436.81;5018620;28;20206;-70
2023/03/05 01:57:24;;;;;;;44.53;12.93;;;;;;;2.23;91.61;96428.72;5019955;28;20217;-70
2023/03/05 01:59:57;;;;;;;35.23;11.07;;;;;;;2.28;91.13;96427.44;5019218;28;20210;-71
2023/03/05 02:02:25;;;;;;;47.07;11.23;;;;;;;2.25;91.23;96426.84;5019679;28;20243;-76
2023/03/05 02:04:59;;;;;;;41.00;12.10;;;;;;;2.23;92.08;96423.53;5018829;28;20214;-71
2023/03/05 02:07:26;;;;;;;32.17;9.83;;;;;;;2.18;91.93;96410.91;5018739;28;20218;-74
2023/03/05 02:09:53;;;;;;;39.47;10.97;;;;;;;2.19;90.84;96412.56;5020087;28;20216;-70
2023/03/05 02:12:19;;;;;;;43.10;11.23;;;;;;;2.22;91.22;96406.28;5019171;28;20219;-73
2023/03/05 02:14:50;;;;;;;35.77;12.17;;;;;;;2.30;91.29;96401.31;5018426;28;20209;-69
2023/03/05 02:17:16;;;;;;;41.43;12.40;;;;;;;2.12;90.78;96403.59;5019259;28;20749;-71
2023/03/05 02:19:47;;;;;;;41.33;11.53;;;;;;;2.33;91.16;96398.44;5018712;28;20219;-73
2023/03/05 02:22:17;;;;;;;43.00;13.30;;;;;;;2.30;90.96;96388.31;5019204;28;20233;-76
2023/03/05 02:24:43;;;;;;;40.83;11.70;;;;;;;2.18;91.89;96387.50;5018524;28;20248;-76
2023/03/05 02:27:10;;;;;;;38.53;11.00;;;;;;;1.99;92.02;96389.91;5019120;28;20306;-71
2023/03/05 02:29:41;;;;;;;40.80;12.27;;;;;;;2.10;92.20;96391.66;5019198;28;20219;-70
2023/03/05 02:32:08;;;;;;;35.27;11.47;;;;;;;1.96;92.12;96387.56;5019159;28;20429;-73
2023/03/05 02:34:35;;;;;;;44.53;11.73;;;;;;;2.13;92.60;96391.44;5018111;28;20257;-70
2023/03/05 02:37:03;;;;;;;35.00;11.93;;;;;;;2.27;92.09;96381.56;5019098;28;20217;-70
2023/03/05 02:39:31;;;;;;;37.90;12.40;;;;;;;2.43;91.43;96374.16;5019270;28;20290;-75
2023/03/05 02:41:58;;;;;;;46.63;12.87;;;;;;;2.24;91.25;96374.03;5019028;28;20231;-71
2023/03/05 02:44:24;;;;;;;39.80;10.93;;;;;;;2.16;91.87;96373.81;5018109;28;20208;-75
2023/03/05 02:46:51;;;;;;;40.77;13.93;;;;;;;2.18;91.55;96371.91;5018552;28;20210;-72
2023/03/05 02:49:17;;;;;;;41.13;12.47;;;;;;;1.91;92.92;96368.94;5019032;28;20576;-71
2023/03/05 02:51:44;;;;;;;39.87;13.43;;;;;;;2.14;92.65;96370.50;5018892;28;20224;-71
2023/03/05 02:54:10;;;;;;;45.53;12.60;;;;;;;2.21;92.32;96363.03;5017915;28;20209;-73
2023/03/05 02:56:38;;;;;;;35.93;10.13;;;;;;;2.13;92.21;96365.44;5018882;28;20211;-70
2023/03/05 02:59:05;;;;;;;40.43;12.90;;;;;;;2.13;92.63;96362.84;5018823;28;20217;-71
2023/03/05 03:01:31;;;;;;;42.97;14.23;;;;;;;2.16;92.70;96362.59;5017929;28;20237;-71
2023/03/05 03:03:58;;;;;;;35.03;11.47;;;;;;;2.14;92.80;96357.53;5018368;28;20201;-69
2023/03/05 03:06:24;;;;;;;41.40;12.77;;;;;;;2.31;92.26;96359.56;5018479;28;20716;-69
2023/03/05 03:08:51;;;;;;;31.57;10.30;;;;;;;2.22;92.58;96354.31;5018101;28;20209;-74
2023/03/05 03:11:20;;;;;;;37.57;11.53;;;;;;;2.28;92.80;96357.22;5018830;28;20206;-74
2023/03/05 03:13:48;;;;;;;30.80;8.77;;;;;;;2.23;91.69;96356.78;5017422;28;20289;-72
2023/03/05 03:16:15;;;;;;;43.53;11.30;;;;;;;2.21;92.53;96357.84;5018388;28;20220;-75
2023/03/05 03:18:42;;;;;;;34.77;10.53;;;;;;;2.13;92.69;96349.84;5018073;28;20213;-71
2023/03/05 03:21:16;;;;;;;44.87;12.83;;;;;;;2.20;93.01;96351.00;5018138;28;20747;-70
2023/03/05 03:23:42;;;;;;;32.40;11.33;;;;;;;2.23;92.69;96342.94;5017599;28;20232;-70
2023/03/05 03:26:08;;;;;;;44.43;11.43;;;;;;;2.08;93.37;96347.59;5018200;28;20203;-72
2023/03/05 03:28:35;;;;;;;31.73;9.53;;;;;;;2.23;92.80;96340.34;5017969;28;20213;-74
2023/03/05 03:31:03;;;;;;;36.10;11.70;;;;;;;2.30;93.30;96341.50;5018023;28;20692;-73
2023/03/05 03:33:29;;;;;;;38.77;13.17;;;;;;;2.31;92.98;96337.97;5017526;28;20220;-77
2023/03/05 03:35:56;;;;;;;37.03;12.00;;;;;;;2.37;93.18;96340.88;5017673;28;20223;-70
2023/03/05 03:38:22;;;;;;;30.93;9.63;;;;;;;2.07;93.41;96339.94;5017968;28;20213;-70
2023/03/05 03:40:49;;;;;;;44.03;11.00;;;;;;;2.26;93.20;96333.13;5017877;28;20216;-70
2023/03/05 03:43:15;;;;;;;41.43;12.00;;;;;;;2.37;92.77;96338.28;5017389;28;20244;-75
2023/03/05 03:45:42;;;;;;;43.93;13.13;;;;;;;2.40;92.63;96338.03;5017422;28;20223;-72
2023/03/05 03:48:11;;;;;;;33.03;9.93;;;;;;;2.47;91.97;96344.38;5018048;28;20204;-72
2023/03/05 03:50:39;;;;;;;44.53;11.93;;;;;;;2.42;92.14;96336.94;5017738;28;20207;-71
2023/03/05 03:53:05;;;;;;;33.00;10.73;;;;;;;2.26;92.86;96329.72;5017651;28;20241;-72
2023/03/05 03:55:31;;;;;;;37.23;12.10;;;;;;;2.27;93.29;96323.56;5016845;28;20218;-77
2023/03/05 03:57:58;;;;;;;39.33;10.57;;;;;;;2.32;93.10;96329.19;5015813;28;20317;-72
2023/03/05 04:00:24;;;;;;;40.23;12.47;;;;;;;2.32;93.49;96318.78;5016855;28;20213;-74
2023/03/05 04:02:51;;;;;;;40.83;11.90;;;;;;;2.36;93.05;96321.03;5017458;28;20232;-71
2023/03/05 04:05:19;;;;;;;43.37;13.53;;;;;;;2.51;93.26;96314.56;5016248;28;20211;-73
2023/03/05 04:07:45;;;;;;;41.17;12.63;;;;;;;2.48;93.39;96315.66;5017058;28;20211;-70
2023/03/05 04:10:12;;;;;;;48.53;13.83;;;;;;;2.50;93.48;96318.94;5017203;28;20209;-74
2023/03/05 04:12:41;;;;;;;41.43;12.23;;;;;;;2.38;94.06;96319.16;5017438;28;20251;-72
2023/03/05 04:15:09;;;;;;;39.23;10.77;;;;;;;2.26;94.72;96314.13;5016771;28;20754;-70
2023/03/05 04:17:35;;;;;;;38.50;10.37;;;;;;;2.22;94.73;96307.53;5017460;28;20212;-75
2023/03/05 04:20:03;;;;;;;50.23;13.97;;;;;;;2.26;95.20;96308.91;5017622;28;20825;-77
2023/03/05 04:22:31;;;;;;;49.57;12.67;;;;;;;2.34;94.72;96301.31;5017407;28;20240;-73
2023/03/05 04:24:58;;;;;;;49.03;14.67;;;;;;;2.44;95.95;96303.84;5016485;28;20228;-71
2023/03/05 04:27:24;;;;;;;45.87;11.10;;;;;;;2.44;94.32;96298.66;5017244;28;20206;-72
2023/03/05 04:29:51;;;;;;;40.47;11.93;;;;;;;2.49;94.30;96301.66;5016600;28;20211;-73
2023/03/05 04:32:21;;;;;;;35.67;11.93;;;;;;;2.53;95.14;96297.91;5017215;28;20233;-75
2023/03/05 04:34:48;;;;;;;38.67;11.97;;;;;;;2.49;94.77;96299.06;5017090;28;20207;-71
2023/03/05 04:37:14;;;;;;;37.57;12.43;;;;;;;2.34;94.69;96294.31;5017127;28;20212;-71
2023/03/05 04:39:42;;;;;;;42.23;12.03;;;;;;;2.32;95.72;96290.19;5017211;28;20220;-77
2023/03/05 04:42:09;;;;;;;28.13;9.20;;;;;;;2.16;96.01;96292.41;5017008;28;20243;-70
2023/03/05 04:44:36;;;;;;;38.73;12.10;;;;;;;2.22;96.35;96291.91;5016370;28;21197;-75
2023/03/05 04:47:02;;;;;;;38.73;11.70;;;;;;;2.26;95.74;96288.94;5017033;28;20229;-73
2023/03/05 04:49:29;;;;;;;31.13;9.23;;;;;;;2.04;96.85;96285.63;5016951;28;20213;-75
2023/03/05 04:51:56;;;;;;;30.67;10.63;;;;;;;2.22;96.66;96289.31;5017286;28;20221;-73
2023/03/05 04:54:22;;;;;;;34.80;10.30;;;;;;;2.08;96.07;96289.63;5015940;28;20216;-77
2023/03/05 04:56:50;;;;;;;40.73;12.50;;;;;;;2.19;96.88;96286.94;5016883;28;20278;-71
2023/03/05 04:59:17;;;;;;;43.30;12.70;;;;;;;2.19;96.05;96287.78;5016689;28;20220;-71
2023/03/05 05:01:43;;;;;;;40.17;12.27;;;;;;;2.28;95.67;96275.81;5016759;28;20229;-72
2023/03/05 05:04:10;;;;;;;38.03;12.67;;;;;;;2.30;95.68;96284.31;5016205;28;20216;-76
2023/03/05 05:06:36;;;;;;;22.37;8.23;;;;;;;2.08;96.12;96281.81;5016891;28;20209;-72
2023/03/05 05:09:03;;;;;;;41.30;11.40;;;;;;;2.23;96.23;96277.94;5016980;28;20205;-72
2023/03/05 05:11:30;;;;;;;41.93;12.53;;;;;;;2.29;96.66;96285.25;5016737;28;20204;-76
2023/03/05 05:13:57;;;;;;;40.33;12.63;;;;;;;2.43;95.79;96275.34;5015570;28;20787;-75
2023/03/05 05:16:24;;;;;;;39.70;11.73;;;;;;;2.27;96.39;96277.59;5016772;28;20219;-72
2023/03/05 05:18:50;;;;;;;40.20;12.67;;;;;;;2.27;96.42;96275.00;5016799;28;20206;-71
2023/03/05 05:21:19;;;;;;;38.67;10.57;;;;;;;2.27;96.77;96269.78;5016542;28;20218;-76
2023/03/05 05:23:45;;;;;;;31.20;10.27;;;;;;;2.31;96.22;96271.19;5015684;28;20225;-76
2023/03/05 05:26:13;;;;;;;42.20;12.27;;;;;;;2.36;96.27;96276.84;5016700;28;20215;-72
2023/03/05 05:28:41;;;;;;;40.43;11.97;;;;;;;2.27;96.17;96259.38;5016080;28;20324;-76
2023/03/05 05:31:11;;;;;;;42.50;10.70;;;;;;;2.33;96.79;96264.09;5016811;28;20247;-71
2023/03/05 05:33:38;;;;;;;24.57;8.87;;;;;;;2.29;96.19;96267.91;5015992;28;20226;-73
2023/03/05 05:36:06;;;;;;;48.60;12.27;;;;;;;2.39;96.27;96260.97;5016522;28;20213;-77
2023/03/05 05:38:33;;;;;;;32.67;10.90;;;;;;;2.45;96.64;96266.47;5016898;28;20202;-70
2023/03/05 05:41:04;;;;;;;33.53;11.30;;;;;;;2.50;95.52;96266.91;5018692;28;20255;-70
2023/03/05 05:43:31;;;;;;;42.43;12.10;;;;;;;2.45;95.76;96263.88;5019913;28;20240;-73
2023/03/05 05:46:00;;;;;;;39.33;11.37;;;;;;;2.60;95.33;96267.81;5019986;28;20216;-71
2023/03/05 05:48:28;;;;;;;42.50;12.70;;;;;;;2.65;95.64;96264.84;5020038;28;20590;-73
2023/03/05 05:50:54;;;;;;;39.93;13.27;;;;;;;2.57;95.35;96257.66;5019753;28;20205;-72
2023/03/05 05:53:21;;;;;;;42.13;13.50;;;;;;;2.50;95.03;96260.91;5020100;28;20313;-72
2023/03/05 05:55:47;;;;;;;43.90;12.37;;;;;;;2.51;95.49;96258.19;5019040;28;20205;-75
2023/03/05 05:58:14;;;;;;;33.87;10.83;;;;;;;2.38;95.63;96256.75;5019878;28;20699;-77
2023/03/05 06:00:40;;;;;;;43.87;13.27;;;;;;;2.39;96.28;96258.38;5019694;28;20213;-72
2023/03/05 06:03:07;;;;;;;43.20;12.17;;;;;;;2.24;96.17;96264.00;5019639;28;20326;-75
2023/03/05 06:05:35;;;;;;;38.77;10.57;;;;;;;2.36;96.03;96263.03;5018489;28;20686;-72
2023/03/05 06:08:01;;;;;;;45.93;11.73;;;;;;;2.37;96.79;96252.47;5019591;28;20218;-74
2023/03/05 06:10:28;;;;;;;36.60;10.97;;;;;;;2.40;96.52;96264.41;5019829;28;20216;-70
2023/03/05 06:12:55;;;;;;;33.70;11.70;;;;;;;2.44;96.39;96261.41;5019561;28;20232;-70
2023/03/05 06:15:21;;;;;;;39.50;10.87;;;;;;;2.40;96.35;96259.22;5019026;28;20216;-73
2023/03/05 06:17:47;;;;;;;38.80;11.07;;;;;;;2.53;95.78;96256.28;5019493;28;20206;-69
2023/03/05 06:20:14;;;;;;;40.73;11.40;;;;;;;2.50;96.26;96260.91;5019720;28;20217;-73
2023/03/05 06:22:42;;;;;;;38.70;11.43;;;;;;;2.59;96.69;96255.75;5019191;28;20232;-74
2023/03/05 06:25:10;;;;;;;39.30;12.63;;;;;;;2.52;96.19;96267.63;5018832;28;20218;-76
2023/03/05 06:27:37;;;;;;;39.77;10.67;;;;;;;2.60;95.54;96265.22;5019641;28;20208;-72
2023/03/05 06:30:04;;;;;;;44.20;12.37;;;;;;;2.58;95.51;96263.69;5019580;28;20208;-74
2023/03/05 06:32:31;;;;;;;51.20;14.43;;;;;;;2.42;95.87;96264.16;5018868;28;20266;-77
2023/03/05 06:34:57;;;;;;;42.10;12.93;;;;;;;2.39;95.98;96262.75;5018913;28;20216;-73
2023/03/05 06:37:24;;;;;;;42.57;13.60;;;;;;;2.48;96.74;96270.59;5018931;28;20207;-74
2023/03/05 06:39:52;;;;;;;40.80;12.00;;;;;;;2.39;96.86;96265.34;5018639;28;20217;-74
2023/03/05 06:42:18;;;;;;;34.20;11.50;;;;;;;2.46;96.80;96273.34;5019112;28;20239;-72
2023/03/05 06:44:45;;;;;;;42.57;11.93;;;;;;;2.61;95.14;96268.63;5018294;28;20212;-72
2023/03/05 06:47:13;;;;;;;47.77;12.87;;;;;;;2.47;95.52;96259.38;5018850;28;20593;-73
2023/03/05 06:49:40;;;;;;;25.67;8.67;;;;;;;3.07;100.00;96259.41;5018745;28;20209;-73
2023/03/05 06:52:08;;;;;;;39.70;10.83;;;;;;;4.07;100.00;96250.41;5018457;28;20229;-71
2023/03/05 06:54:35;;;;;;;36.70;11.43;;;;;;;4.06;89.46;96254.81;5018145;28;20205;-71
2023/03/05 06:57:03;;;;;;;38.30;12.43;;;;;;;3.55;90.35;96255.16;5018759;28;20208;-73
2023/03/05 06:59:30;;;;;;;34.73;11.10;;;;;;;3.41;90.41;96255.53;5018236;28;20213;-70
2023/03/05 07:01:56;;;;;;;41.90;11.90;;;;;;;2.69;93.33;96261.03;5019083;28;20222;-72
2023/03/05 07:04:23;;;;;;;36.03;11.53;;;;;;;2.78;93.54;96260.25;5017715;28;20233;-72
2023/03/05 07:06:49;;;;;;;43.13;13.27;;;;;;;2.87;93.25;96255.06;5018869;28;20217;-70
2023/03/05 07:09:16;;;;;;;41.03;12.00;;;;;;;2.90;93.61;96257.41;5018986;28;20213;-72
2023/03/05 07:11:43;;;;;;;34.90;11.20;;;;;;;2.77;94.61;96245.59;5017789;28;20776;-72
2023/03/05 07:14:11;;;;;;;41.93;11.13;;;;;;;2.85;94.64;96257.00;5016227;28;20210;-71
2023/03/05 07:16:38;;;;;;;34.17;11.20;;;;;;;2.65;94.40;96250.03;5017132;28;20202;-70
2023/03/05 07:19:06;;;;;;;46.00;11.87;;;;;;;2.95;93.79;96244.84;5017773;28;20753;-72
2023/03/05 07:21:34;;;;;;;45.83;13.97;;;;;;;2.78;95.24;96250.66;5017570;28;20202;-70
2023/03/05 07:24:02;;;;;;;41.37;13.07;;;;;;;2.80;95.47;96250.50;5016758;28;20228;-70
2023/03/05 07:26:29;;;;;;;43.60;11.93;;;;;;;2.73;94.81;96247.63;5017296;28;20202;-71
2023/03/05 07:28:56;;;;;;;68.97;22.07;;;;;;;2.86;94.49;96250.00;5017625;28;20301;-70
2023/03/05 07:31:25;;;;;;;70.00;21.77;;;;;;;2.97;94.92;96244.72;5017213;28;20197;-69
2023/03/05 07:33:53;;;;;;;57.57;17.77;;;;;;;2.87;95.01;96239.47;5016881;28;20205;-74
2023/03/05 07:36:20;;;;;;;46.03;12.53;;;;;;;2.86;94.36;96237.81;5017724;28;20217;-72
2023/03/05 07:38:46;;;;;;;43.80;14.70;;;;;;;2.98;93.99;96241.97;5017923;28;20216;-74
2023/03/05 07:41:18;;;;;;;35.53;11.00;;;;;;;3.07;94.38;96236.00;5017727;28;20248;-74
2023/03/05 07:43:45;;;;;;;39.07;12.90;;;;;;;3.09;93.67;96234.06;5016916;28;20218;-71
2023/03/05 07:46:13;;;;;;;47.43;15.30;;;;;;;3.08;94.24;96238.47;5017484;28;20205;-74
2023/03/05 07:48:41;;;;;;;38.10;13.37;;;;;;;2.84;95.90;96238.91;5017726;28;20205;-71
2023/03/05 07:51:10;;;;;;;38.80;11.67;;;;;;;2.98;95.14;96235.94;5017022;28;20209;-72
2023/03/05 07:53:37;;;;;;;49.73;13.53;;;;;;;3.10;94.58;96240.94;5016478;28;20225;-75
2023/03/05 07:56:04;;;;;;;41.47;12.27;;;;;;;2.96;95.05;96236.06;5017686;28;20227;-72
2023/03/05 07:58:30;;;;;;;40.90;13.23;;;;;;;2.94;94.63;96240.59;5017099;28;20220;-73
2023/03/05 08:00:57;;;;;;;27.50;8.67;;;;;;;3.41;100.00;96234.69;5017127;28;20225;-72
2023/03/05 08:03:23;;;;;;;33.63;12.10;;;;;;;3.48;93.10;96233.22;5016456;28;21315;-74
2023/03/05 08:05:51;;;;;;;38.87;12.00;;;;;;;3.18;93.83;96233.28;5016710;28;20259;-72
2023/03/05 08:08:18;;;;;;;35.60;10.77;;;;;;;3.09;94.49;96237.50;5017298;28;20301;-71
2023/03/05 08:10:45;;;;;;;47.67;13.17;;;;;;;3.21;94.28;96235.63;5016749;28;20234;-77
2023/03/05 08:13:11;;;;;;;36.33;11.87;;;;;;;3.21;93.87;96233.03;5017272;28;20239;-74
2023/03/05 08:15:38;;;;;;;41.73;10.10;;;;;;;3.17;93.50;96226.41;5015980;28;20201;-72
2023/03/05 08:18:05;;;;;;;39.83;11.10;;;;;;;3.16;94.00;96224.78;5017261;28;20201;-76
2023/03/05 08:20:35;;;;;;;41.90;11.40;;;;;;;3.06;94.90;96223.94;5016783;28;20200;-76
2023/03/05 08:23:04;;;;;;;36.83;10.53;;;;;;;3.04;95.01;96221.47;5016708;28;20730;-74
2023/03/05 08:25:30;;;;;;;46.13;11.70;;;;;;;3.10;94.40;96233.13;5015807;28;21169;-72
2023/03/05 08:27:57;;;;;;;41.93;12.23;;;;;;;3.04;95.07;96221.47;5016493;28;20658;-73
2023/03/05 08:30:26;;;;;;;38.23;13.33;;;;;;;3.16;94.86;96223.00;5016949;28;20224;-76
2023/03/05 08:32:52;;;;;;;41.23;12.47;;;;;;;3.18;94.45;96217.66;5016605;28;20598;-74
2023/03/05 08:35:19;;;;;;;44.67;13.93;;;;;;;3.38;94.31;96220.16;5016350;28;20205;-74
2023/03/05 08:37:46;;;;;;;47.77;13.90;;;;;;;3.50;93.40;96208.69;5016040;28;20213;-75
2023/03/05 08:40:16;;;;;;;48.63;13.87;;;;;;;3.66;93.48;96212.38;5016444;28;20213;-74
2023/03/05 08:42:43;;;;;;;34.27;10.20;;;;;;;3.37;93.23;96215.09;5016323;28;20372;-75
2023/03/05 08:45:10;;;;;;;37.87;10.27;;;;;;;3.47;93.26;96221.16;5015966;28;20229;-75
2023/03/05 08:47:37;;;;;;;58.77;15.10;;;;;;;3.59;93.21;96212.25;5016895;28;20212;-73
2023/03/05 08:50:04;;;;;;;42.60;10.73;;;;;;;3.55;93.17;96208.28;5016300;28;20216;-74
2023/03/05 08:52:30;;;;;;;87.33;25.13;;;;;;;3.24;94.59;96210.13;5016339;28;20222;-72
2023/03/05 08:54:57;;;;;;;71.70;20.20;;;;;;;3.47;93.63;96213.34;5015744;28;20232;-76
2023/03/05 08:57:25;;;;;;;36.50;10.63;;;;;;;3.64;93.04;96209.09;5016615;28;20204;-71
2023/03/05 08:59:51;;;;;;;34.20;9.83;;;;;;;3.49;92.96;96209.66;5016054;28;21102;-77
2023/03/05 09:02:18;;;;;;;35.07;9.83;;;;;;;3.34;94.25;96212.78;5016568;28;20217;-73
2023/03/05 09:04:45;;;;;;;53.57;12.63;;;;;;;3.53;93.84;96202.38;5014739;28;20233;-78
2023/03/05 09:07:11;;;;;;;85.87;23.83;;;;;;;3.66;93.40;96204.56;5016354;28;20201;-76
2023/03/05 09:09:39;;;;;;;59.27;16.67;;;;;;;3.57;93.66;96209.78;5012851;28;20215;-71
2023/03/05 09:12:06;;;;;;;42.47;11.93;;;;;;;3.65;92.96;96205.56;5014674;28;20739;-74
2023/03/05 09:14:34;;;;;;;39.10;11.07;;;;;;;3.74;93.19;96202.13;5014809;28;20205;-71
2023/03/05 09:17:02;;;;;;;52.83;16.50;;;;;;;3.80;93.24;96206.78;5018866;28;20211;-75
2023/03/05 09:19:28;;;;;;;53.53;12.73;;;;;;;3.87;92.38;96209.66;5019632;28;20205;-72
2023/03/05 09:21:55;;;;;;;26.47;8.80;;;;;;;3.82;91.98;96199.66;5018934;28;20232;-75
2023/03/05 09:24:21;;;;;;;35.80;11.43;;;;;;;3.63;93.74;96199.63;5018263;28;20230;-79
2023/03/05 09:26:48;;;;;;;45.30;11.50;;;;;;;3.46;95.42;96201.25;5018411;28;20219;-72
2023/03/05 09:29:14;;;;;;;45.47;11.27;;;;;;;3.75;94.71;96193.31;5018795;28;20514;-75
2023/03/05 09:31:42;;;;;;;56.07;13.23;;;;;;;3.95;93.02;96199.38;5018238;28;20236;-73
2023/03/05 09:34:10;;;;;;;62.17;17.57;;;;;;;4.08;92.32;96197.31;5017830;28;20253;-75
2023/03/05 09:36:37;;;;;;;38.13;11.90;;;;;;;3.85;92.63;96191.56;5018504;28;20670;-76
2023/03/05 09:39:05;;;;;;;30.17;10.20;;;;;;;3.95;92.69;96189.78;5018596;28;20209;-77
2023/03/05 09:41:42;;;;;;;32.43;9.87;;;;;;;4.05;92.52;96193.19;5017890;28;20816;-74
2023/03/05 09:44:25;;;;;;;34.77;10.43;;;;;;;3.77;94.09;96186.22;5017076;28;20328;-77
2023/03/05 09:46:55;;;;;;;37.00;10.93;;;;;;;3.94;94.17;96188.13;5017670;28;20206;-74
2023/03/05 09:49:32;;;;;;;39.00;10.87;;;;;;;3.98;93.60;96189.47;5017791;28;20198;-72
2023/03/05 09:52:06;;;;;;;34.37;10.13;;;;;;;3.97;94.04;96182.66;5016783;28;20228;-72
2023/03/05 09:54:39;;;;;;;29.20;9.87;;;;;;;4.01;92.92;96186.63;5016685;28;20863;-72
2023/03/05 09:57:13;;;;;;;33.17;8.67;;;;;;;4.18;92.60;96179.88;5015649;28;20213;-72
2023/03/05 09:59:47;;;;;;;20.17;7.53;;;;;;;4.27;92.11;96180.66;5016375;28;20316;-70
2023/03/05 10:02:20;;;;;;;37.37;10.63;;;;;;;4.18;92.49;96178.06;5016488;28;20252;-69
2023/03/05 10:04:52;;;;;;;37.13;9.97;;;;;;;4.28;92.89;96166.66;5015721;28;20221;-72
2023/03/05 10:07:24;;;;;;;30.33;9.00;;;;;;;4.40;91.71;96168.16;5015949;28;20209;-71
2023/03/05 10:09:56;;;;;;;35.57;9.60;;;;;;;4.34;92.59;96157.44;5015861;28;20210;-72
2023/03/05 10:12:27;;;;;;;27.33;9.60;;;;;;;4.27;92.45;96164.19;5016138;28;20709;-70
2023/03/05 10:14:54;;;;;;;40.13;10.90;;;;;;;4.25;93.18;96161.75;5015463;28;20197;-71
2023/03/05 10:17:57;;;;;;;54.90;13.27;;;;;;;4.52;92.14;96164.41;5015363;28;20212;-71
2023/03/05 10:20:41;;;;;;;38.60;11.50;;;;;;;4.58;92.57;96155.19;5009495;28;20212;-73
2023/03/05 10:23:23;;;;;;;43.20;11.17;;;;;;;4.67;91.46;96154.31;5014598;28;20229;-72
2023/03/05 10:25:56;;;;;;;44.13;11.67;;;;;;;4.82;91.13;96148.47;5016362;28;20332;-70
2023/03/05 10:28:33;;;;;;;42.87;11.97;;;;;;;4.86;90.61;96145.44;5015486;28;20212;-74
2023/03/05 10:31:12;;;;;;;34.73;8.47;;;;;;;4.94;89.74;96142.94;5015617;28;20217;-74
2023/03/05 10:33:49;;;;;;;33.73;8.93;;;;;;;4.94;89.62;96139.50;5016164;28;20218;-71
2023/03/05 10:36:43;;;;;;;28.43;7.77;;;;;;;5.08;89.48;96129.38;5016361;28;20201;-73
2023/03/05 10:39:41;;;;;;;32.13;10.07;;;;;;;5.04;88.72;96129.81;5016504;28;20210;-72
2023/03/05 10:42:20;;;;;;;43.93;12.90;;;;;;;5.06;88.69;96127.88;5017407;28;20222;-71
2023/03/05 10:44:50;;;;;;;34.13;9.70;;;;;;;5.11;89.23;96125.66;5015985;28;21007;-72
2023/03/05 10:47:24;;;;;;;31.00;9.93;;;;;;;5.14;88.96;96120.97;5016389;28;20206;-71
2023/03/05 10:49:52;;;;;;;29.90;9.07;;;;;;;5.20;89.04;96122.97;5016805;28;20209;-72
2023/03/05 10:52:25;;;;;;;31.90;8.73;;;;;;;4.94;88.13;96119.44;5017047;28;20240;-74
2023/03/05 10:54:51;;;;;;;31.90;10.23;;;;;;;4.94;88.22;96109.00;5016571;28;20213;-72
2023/03/05 10:57:20;;;;;;;34.13;9.67;;;;;;;5.16;89.06;96113.00;5016914;28;20210;-74
2023/03/05 10:59:50;;;;;;;38.03;13.00;;;;;;;5.29;86.76;96108.22;5016314;28;20313;-71
2023/03/05 11:02:18;;;;;;;21.97;8.57;;;;;;;5.06;87.44;96107.81;5016931;28;20237;-72
2023/03/05 11:04:47;;;;;;;30.97;9.47;;;;;;;5.20;87.28;96104.69;5016062;28;20222;-72
2023/03/05 11:07:35;;;;;;;29.17;8.73;;;;;;;5.46;87.66;96100.41;5014900;28;20213;-72
2023/03/05 11:10:06;;;;;;;32.33;9.80;;;;;;;5.51;87.33;96096.38;5014981;28;20240;-74
2023/03/05 11:12:34;;;;;;;23.87;7.63;;;;;;;5.43;84.42;96100.69;5015195;28;20221;-74
2023/03/05 11:15:06;;;;;;;24.17;7.87;;;;;;;5.51;81.84;96092.91;5014442;28;20805;-72
2023/03/05 11:17:36;;;;;;;26.33;6.87;;;;;;;5.45;82.34;96088.31;5014737;28;20206;-75
2023/03/05 11:20:29;;;;;;;22.83;7.73;;;;;;;5.43;80.94;96091.06;5015690;28;20206;-73
2023/03/05 11:23:05;;;;;;;21.43;7.40;;;;;;;5.05;82.35;96090.53;5015119;28;20236;-74
2023/03/05 11:25:34;;;;;;;18.13;5.97;;;;;;;5.02;82.50;96084.75;5014997;28;20300;-74
2023/03/05 11:28:02;;;;;;;17.23;6.97;;;;;;;5.05;82.60;96087.06;5015647;28;20638;-72
2023/03/05 11:30:32;;;;;;;25.27;8.40;;;;;;;5.19;82.35;96086.56;5015471;28;20223;-73
2023/03/05 11:33:10;;;;;;;26.53;8.47;;;;;;;5.19;82.42;96084.75;5015540;28;20312;-73